Time;durP1;ratioP1;P1;durP2;ratioP2;P2;SDS_P1;SDS_P2;PMS_P1;PMS_P2;Temp;Humidity;BMP_temperature;BMP_pressure;BME280_temperature;BME280_humidity;BME280_pressure;Samples;Min_cycle;Max_cycle;Signal;HPM_P1;HPM_P2
2023/02/05 00:00:55;;;;;;;7.10;4.20;;;;;;;;;;5035153;28;20489;-83
2023/02/05 00:03:21;;;;;;;6.43;4.40;;;;;;;;;;5036354;28;21432;-84
2023/02/05 00:05:47;;;;;;;7.20;4.03;;;;;;;;;;5033506;28;20383;-84
2023/02/05 00:08:13;;;;;;;6.57;4.07;;;;;;;;;;5034318;28;20744;-84
2023/02/05 00:10:39;;;;;;;8.13;4.32;;;;;;;;;;5033123;28;20442;-84
2023/02/05 00:13:07;;;;;;;7.38;3.97;;;;;;;;;;5032294;28;20403;-83
2023/02/05 00:15:33;;;;;;;6.68;3.97;;;;;;;;;;5032792;28;20453;-82
2023/02/05 00:17:59;;;;;;;6.47;3.75;;;;;;;;;;5031362;28;20384;-83
2023/02/05 00:20:25;;;;;;;6.50;4.10;;;;;;;;;;5033725;28;20463;-82
2023/02/05 00:22:52;;;;;;;5.95;4.13;;;;;;;;;;5015641;28;20761;-82
2023/02/05 00:25:18;;;;;;;5.90;4.25;;;;;;;;;;5019410;28;20854;-82
2023/02/05 00:27:43;;;;;;;8.57;4.40;;;;;;;;;;5035304;28;20418;-83
2023/02/05 00:30:10;;;;;;;7.05;4.03;;;;;;;;;;5032061;28;20417;-83
2023/02/05 00:32:36;;;;;;;8.80;4.38;;;;;;;;;;5032674;28;20526;-83
2023/02/05 00:35:02;;;;;;;6.25;4.20;;;;;;;;;;5031102;28;20403;-83
2023/02/05 00:37:28;;;;;;;5.80;3.95;;;;;;;;;;5033589;28;20381;-84
2023/02/05 00:39:54;;;;;;;7.38;4.20;;;;;;;;;;5033176;28;20752;-83
2023/02/05 00:42:20;;;;;;;5.97;4.15;;;;;;;;;;5034338;28;20395;-83
2023/02/05 00:44:46;;;;;;;6.22;3.95;;;;;;;;;;5034236;28;20382;-83
2023/02/05 00:47:12;;;;;;;8.02;4.30;;;;;;;;;;5032034;28;20491;-82
2023/02/05 00:49:38;;;;;;;5.75;3.90;;;;;;;;;;5035541;28;20371;-82
2023/02/05 00:52:04;;;;;;;5.82;4.10;;;;;;;;;;5031633;28;20407;-82
2023/02/05 00:54:30;;;;;;;5.82;4.10;;;;;;;;;;5031289;28;20371;-82
2023/02/05 00:56:56;;;;;;;9.15;4.13;;;;;;;;;;5031034;28;20730;-82
2023/02/05 00:59:22;;;;;;;6.18;3.90;;;;;;;;;;5032526;28;20373;-82
2023/02/05 01:01:48;;;;;;;7.30;4.50;;;;;;;;;;5030626;28;20913;-83
2023/02/05 01:04:14;;;;;;;6.07;3.90;;;;;;;;;;5032102;28;20421;-84
2023/02/05 01:06:40;;;;;;;9.20;4.45;;;;;;;;;;5033653;28;20414;-83
2023/02/05 01:09:06;;;;;;;7.53;3.88;;;;;;;;;;5034223;28;20407;-82
2023/02/05 01:11:32;;;;;;;5.97;3.92;;;;;;;;;;5036078;28;20432;-83
2023/02/05 01:13:58;;;;;;;7.77;4.33;;;;;;;;;;5042540;28;20511;-83
2023/02/05 01:16:24;;;;;;;6.45;4.00;;;;;;;;;;5038515;28;20763;-83
2023/02/05 01:18:51;;;;;;;5.35;4.10;;;;;;;;;;5020384;28;20478;-83
2023/02/05 01:21:17;;;;;;;5.18;3.63;;;;;;;;;;5041505;28;20371;-83
2023/02/05 01:23:43;;;;;;;6.72;3.97;;;;;;;;;;5035625;28;20434;-83
2023/02/05 01:26:09;;;;;;;7.05;3.85;;;;;;;;;;5043729;28;20777;-83
2023/02/05 01:28:35;;;;;;;7.90;3.95;;;;;;;;;;5042120;28;20400;-83
2023/02/05 01:31:01;;;;;;;6.82;3.92;;;;;;;;;;5033238;28;20445;-83
2023/02/05 01:33:27;;;;;;;8.20;4.95;;;;;;;;;;5032278;28;20446;-83
2023/02/05 01:35:53;;;;;;;5.88;4.68;;;;;;;;;;5037032;28;20455;-82
2023/02/05 01:38:19;;;;;;;6.75;4.60;;;;;;;;;;5049072;28;20379;-83
2023/02/05 01:40:45;;;;;;;7.35;4.60;;;;;;;;;;5028418;28;20871;-83
2023/02/05 01:43:12;;;;;;;6.77;4.60;;;;;;;;;;5019178;28;20493;-84
2023/02/05 01:45:49;;;;;;;6.55;4.85;;;;;;;;;;5034870;28;20417;-83
2023/02/05 01:48:15;;;;;;;6.75;4.47;;;;;;;;;;5036837;28;20885;-84
2023/02/05 01:50:44;;;;;;;6.20;4.63;;;;;;;;;;5016340;28;20407;-83
2023/02/05 01:53:16;;;;;;;6.45;4.63;;;;;;;;;;5036294;28;20405;-83
2023/02/05 01:55:50;;;;;;;6.28;4.80;;;;;;;;;;5032035;28;20428;-83
2023/02/05 01:58:16;;;;;;;6.50;4.47;;;;;;;;;;5031489;28;20376;-83
2023/02/05 02:00:42;;;;;;;6.03;4.18;;;;;;;;;;5015068;28;20414;-83
2023/02/05 02:03:10;;;;;;;5.63;4.05;;;;;;;;;;5030620;28;20516;-83
2023/02/05 02:05:35;;;;;;;7.18;4.07;;;;;;;;;;5032617;28;20406;-83
2023/02/05 02:08:02;;;;;;;7.53;4.35;;;;;;;;;;5032527;28;20880;-83
2023/02/05 02:10:28;;;;;;;7.55;4.43;;;;;;;;;;5035026;28;20452;-82
2023/02/05 02:12:54;;;;;;;7.50;3.97;;;;;;;;;;5016826;28;20419;-83
2023/02/05 02:15:22;;;;;;;6.30;4.10;;;;;;;;;;5035558;28;20381;-83
2023/02/05 02:17:51;;;;;;;7.57;3.83;;;;;;;;;;5034244;28;20371;-83
2023/02/05 02:20:22;;;;;;;6.45;4.00;;;;;;;;;;5036113;28;20498;-83
2023/02/05 02:22:54;;;;;;;6.78;3.75;;;;;;;;;;5040550;28;20466;-83
2023/02/05 02:25:20;;;;;;;6.10;4.03;;;;;;;;;;5034837;28;20465;-83
2023/02/05 02:28:09;;;;;;;5.65;3.95;;;;;;;;;;5033497;28;20462;-83
2023/02/05 02:30:35;;;;;;;5.47;3.78;;;;;;;;;;5030237;28;20525;-83
2023/02/05 02:33:10;;;;;;;4.80;4.10;;;;;;;;;;5036250;28;20409;-83
2023/02/05 02:35:58;;;;;;;5.90;4.28;;;;;;;;;;5038435;28;20454;-84
2023/02/05 02:38:28;;;;;;;5.80;4.07;;;;;;;;;;5034252;28;20921;-84
2023/02/05 02:40:59;;;;;;;5.00;3.85;;;;;;;;;;5015943;28;20482;-82
2023/02/05 02:43:31;;;;;;;5.70;3.67;;;;;;;;;;5032413;28;20412;-82
2023/02/05 02:46:04;;;;;;;8.40;4.13;;;;;;;;;;5033279;28;20458;-83
2023/02/05 02:48:31;;;;;;;7.07;3.93;;;;;;;;;;5053868;28;20909;-83
2023/02/05 02:50:58;;;;;;;7.57;4.13;;;;;;;;;;5053526;28;20581;-82
2023/02/05 02:53:26;;;;;;;5.40;3.97;;;;;;;;;;5046738;28;20487;-82
2023/02/05 02:55:54;;;;;;;6.63;4.20;;;;;;;;;;5051567;28;20506;-83
2023/02/05 02:58:23;;;;;;;6.82;3.90;;;;;;;;;;5051448;28;20496;-83
2023/02/05 03:00:50;;;;;;;5.35;4.22;;;;;;;;;;5051422;28;20488;-82
2023/02/05 03:03:18;;;;;;;5.30;4.30;;;;;;;;;;5050579;28;20385;-82
2023/02/05 03:05:45;;;;;;;5.82;3.60;;;;;;;;;;5039863;28;20782;-83
2023/02/05 03:08:18;;;;;;;5.47;4.05;;;;;;;;;;5051957;28;20381;-82
2023/02/05 03:10:47;;;;;;;6.60;3.87;;;;;;;;;;5051503;28;20474;-82
2023/02/05 03:13:13;;;;;;;5.70;3.37;;;;;;;;;;5052963;28;20405;-82
2023/02/05 03:15:40;;;;;;;5.32;3.80;;;;;;;;;;5052914;28;20412;-82
2023/02/05 03:18:06;;;;;;;5.15;4.03;;;;;;;;;;5047452;28;20389;-83
2023/02/05 03:20:36;;;;;;;5.45;3.85;;;;;;;;;;5052203;28;20374;-82
2023/02/05 03:23:02;;;;;;;5.70;3.65;;;;;;;;;;5044448;28;20880;-82
2023/02/05 03:25:29;;;;;;;6.43;3.60;;;;;;;;;;5035926;28;20413;-82
2023/02/05 03:27:56;;;;;;;6.40;4.07;;;;;;;;;;5033558;28;20415;-82
2023/02/05 03:30:24;;;;;;;6.03;3.65;;;;;;;;;;5034657;28;20391;-82
2023/02/05 03:32:56;;;;;;;5.95;3.53;;;;;;;;;;5032553;28;20465;-81
2023/02/05 03:35:36;;;;;;;5.32;3.95;;;;;;;;;;5036631;28;20496;-83
2023/02/05 03:38:07;;;;;;;4.88;3.88;;;;;;;;;;5031925;28;20440;-83
2023/02/05 03:40:52;;;;;;;6.43;4.13;;;;;;;;;;5047211;28;20498;-82
2023/02/05 03:43:23;;;;;;;6.00;4.10;;;;;;;;;;5051341;28;20524;-83
2023/02/05 03:45:49;;;;;;;5.15;4.00;;;;;;;;;;5034319;28;20472;-82
2023/02/05 03:48:23;;;;;;;6.13;3.83;;;;;;;;;;5052316;28;20457;-82
2023/02/05 03:50:52;;;;;;;6.07;3.80;;;;;;;;;;5052341;28;20382;-83
2023/02/05 03:53:24;;;;;;;8.38;3.95;;;;;;;;;;5052174;28;20778;-82
2023/02/05 03:55:52;;;;;;;7.75;3.95;;;;;;;;;;5051448;28;20381;-82
2023/02/05 03:58:21;;;;;;;5.22;3.75;;;;;;;;;;5052282;28;20460;-82
2023/02/05 04:00:47;;;;;;;6.75;4.03;;;;;;;;;;5052615;28;20505;-82
2023/02/05 04:03:14;;;;;;;6.53;3.90;;;;;;;;;;5052493;28;20512;-82
2023/02/05 04:05:40;;;;;;;5.45;3.60;;;;;;;;;;5052476;28;20411;-82
2023/02/05 04:08:06;;;;;;;6.10;3.90;;;;;;;;;;5052377;28;20737;-83
2023/02/05 04:10:32;;;;;;;6.88;4.25;;;;;;;;;;5051791;28;20386;-82
2023/02/05 04:12:58;;;;;;;6.70;3.42;;;;;;;;;;5051868;28;20409;-82
2023/02/05 04:15:25;;;;;;;4.90;3.80;;;;;;;;;;5051800;28;20374;-82
2023/02/05 04:17:51;;;;;;;5.47;3.97;;;;;;;;;;5051848;28;20453;-82
2023/02/05 04:20:17;;;;;;;5.38;3.85;;;;;;;;;;5051722;28;20489;-82
2023/02/05 04:22:43;;;;;;;5.95;3.63;;;;;;;;;;5051784;28;20381;-82
2023/02/05 04:25:09;;;;;;;4.82;3.67;;;;;;;;;;5051563;28;20386;-82
2023/02/05 04:27:35;;;;;;;5.27;4.07;;;;;;;;;;5051679;28;20420;-83
2023/02/05 04:30:01;;;;;;;6.40;3.65;;;;;;;;;;5051196;28;20384;-83
2023/02/05 04:32:27;;;;;;;5.38;3.60;;;;;;;;;;5051490;28;20809;-82
2023/02/05 04:34:53;;;;;;;5.30;3.85;;;;;;;;;;5051254;28;20397;-82
2023/02/05 04:37:19;;;;;;;5.40;4.15;;;;;;;;;;5050525;28;20735;-82
2023/02/05 04:39:46;;;;;;;6.53;3.92;;;;;;;;;;5051610;28;20378;-83
2023/02/05 04:42:12;;;;;;;4.60;3.70;;;;;;;;;;5051369;28;20747;-82
2023/02/05 04:44:38;;;;;;;5.50;3.53;;;;;;;;;;5051347;28;20385;-83
2023/02/05 04:47:04;;;;;;;5.43;3.90;;;;;;;;;;5051441;28;20403;-82
2023/02/05 04:49:32;;;;;;;5.65;3.67;;;;;;;;;;5051186;28;20382;-82
2023/02/05 04:51:58;;;;;;;6.00;3.42;;;;;;;;;;5033416;28;20438;-82
2023/02/05 04:54:24;;;;;;;5.23;3.63;;;;;;;;;;5029852;28;20452;-82
2023/02/05 04:56:50;;;;;;;5.68;3.63;;;;;;;;;;5049069;28;20382;-83
2023/02/05 04:59:16;;;;;;;5.50;3.43;;;;;;;;;;5051116;28;20486;-82
2023/02/05 05:01:42;;;;;;;6.78;3.75;;;;;;;;;;5037120;28;20866;-82
2023/02/05 05:04:08;;;;;;;4.55;3.30;;;;;;;;;;5051651;28;20393;-82
2023/02/05 05:06:34;;;;;;;5.28;3.60;;;;;;;;;;5033852;28;20408;-82
2023/02/05 05:09:00;;;;;;;5.65;3.53;;;;;;;;;;5050083;28;20377;-80
2023/02/05 05:11:26;;;;;;;6.85;3.58;;;;;;;;;;5064901;28;20392;-81
2023/02/05 05:13:52;;;;;;;4.28;3.50;;;;;;;;;;5059282;28;20405;-82
2023/02/05 05:16:18;;;;;;;5.50;3.35;;;;;;;;;;5054578;28;20390;-82
2023/02/05 05:18:44;;;;;;;5.22;3.63;;;;;;;;;;5052738;28;20445;-81
2023/02/05 05:21:10;;;;;;;5.10;3.60;;;;;;;;;;5052179;28;20378;-82
2023/02/05 05:23:36;;;;;;;5.63;3.65;;;;;;;;;;5052061;28;20832;-81
2023/02/05 05:26:07;;;;;;;6.13;4.25;;;;;;;;;;5051645;28;20464;-82
2023/02/05 05:28:33;;;;;;;6.93;4.40;;;;;;;;;;5051421;28;20418;-82
2023/02/05 05:31:00;;;;;;;5.22;3.80;;;;;;;;;;5051323;28;20862;-82
2023/02/05 05:33:26;;;;;;;6.07;3.63;;;;;;;;;;5043486;28;20399;-82
2023/02/05 05:35:52;;;;;;;5.22;3.55;;;;;;;;;;5049677;28;20908;-81
2023/02/05 05:38:18;;;;;;;5.85;3.53;;;;;;;;;;5051731;28;20468;-81
2023/02/05 05:43:47;;;;;;;4.90;3.70;;;;;;;;;;5053502;28;20491;-82
2023/02/05 05:46:14;;;;;;;5.85;4.00;;;;;;;;;;5054810;28;21000;-82
2023/02/05 05:48:41;;;;;;;5.22;3.83;;;;;;;;;;5054632;28;20449;-82
2023/02/05 05:51:07;;;;;;;6.82;4.20;;;;;;;;;;5054585;28;20416;-82
2023/02/05 05:53:33;;;;;;;6.35;3.83;;;;;;;;;;5036645;28;20878;-83
2023/02/05 05:55:59;;;;;;;6.22;3.60;;;;;;;;;;5054694;28;20377;-82
2023/02/05 05:58:25;;;;;;;6.43;4.35;;;;;;;;;;5054520;28;20803;-82
2023/02/05 06:00:51;;;;;;;7.03;4.45;;;;;;;;;;5054377;28;20401;-83
2023/02/05 06:03:17;;;;;;;6.87;3.80;;;;;;;;;;5053980;28;20390;-82
2023/02/05 06:05:43;;;;;;;5.07;3.90;;;;;;;;;;5054339;28;20746;-83
2023/02/05 06:08:09;;;;;;;5.13;3.60;;;;;;;;;;5054225;28;20452;-82
2023/02/05 06:10:35;;;;;;;5.80;3.60;;;;;;;;;;5054201;28;20465;-82
2023/02/05 06:13:01;;;;;;;6.65;4.07;;;;;;;;;;5054135;28;20409;-82
2023/02/05 06:15:27;;;;;;;5.43;3.40;;;;;;;;;;5053965;28;20378;-82
2023/02/05 06:17:53;;;;;;;6.57;3.78;;;;;;;;;;5054130;28;20381;-83
2023/02/05 06:20:19;;;;;;;4.78;3.90;;;;;;;;;;5053958;28;20382;-82
2023/02/05 06:22:45;;;;;;;7.25;4.03;;;;;;;;;;5053941;28;20386;-83
2023/02/05 06:25:11;;;;;;;6.95;3.90;;;;;;;;;;5040586;28;20434;-82
2023/02/05 06:27:37;;;;;;;6.90;4.10;;;;;;;;;;5036117;28;20866;-83
2023/02/05 06:30:03;;;;;;;5.40;3.70;;;;;;;;;;5041446;28;20436;-83
2023/02/05 06:32:29;;;;;;;6.33;4.00;;;;;;;;;;5052641;28;20502;-83
2023/02/05 06:34:55;;;;;;;5.55;3.85;;;;;;;;;;5029915;28;20405;-83
2023/02/05 06:37:24;;;;;;;5.88;4.00;;;;;;;;;;5053599;28;20416;-83
2023/02/05 06:39:50;;;;;;;6.10;3.85;;;;;;;;;;5053634;28;20429;-82
2023/02/05 06:42:16;;;;;;;6.35;4.03;;;;;;;;;;5054488;28;20378;-81
2023/02/05 06:44:42;;;;;;;6.03;4.07;;;;;;;;;;5035606;28;20385;-82
2023/02/05 06:47:08;;;;;;;10.43;7.43;;;;;;;;;;5053546;28;20389;-84
2023/02/05 06:49:34;;;;;;;7.38;4.40;;;;;;;;;;5053413;28;20416;-82
2023/02/05 06:52:00;;;;;;;7.78;4.60;;;;;;;;;;5053316;28;20420;-83
2023/02/05 06:54:26;;;;;;;4.82;3.60;;;;;;;;;;5052269;28;20881;-82
2023/02/05 06:56:52;;;;;;;5.88;4.00;;;;;;;;;;5053183;28;20385;-83
2023/02/05 06:59:18;;;;;;;5.55;4.03;;;;;;;;;;5053305;28;20863;-84
2023/02/05 07:01:44;;;;;;;4.10;3.60;;;;;;;;;;5053148;28;20401;-82
2023/02/05 07:04:10;;;;;;;4.07;3.35;;;;;;;;;;5050497;28;20735;-81
2023/02/05 07:06:36;;;;;;;6.00;3.97;;;;;;;;;;5032831;28;20417;-83
2023/02/05 07:09:02;;;;;;;6.05;4.30;;;;;;;;;;5052194;28;20403;-82
2023/02/05 07:11:28;;;;;;;5.07;3.70;;;;;;;;;;5053008;28;20923;-83
2023/02/05 07:13:54;;;;;;;7.30;4.30;;;;;;;;;;5052039;28;20496;-82
2023/02/05 07:16:20;;;;;;;6.73;3.97;;;;;;;;;;5052392;28;20454;-82
2023/02/05 07:18:46;;;;;;;6.32;4.10;;;;;;;;;;5052893;28;20376;-83
2023/02/05 07:21:14;;;;;;;8.40;4.25;;;;;;;;;;5052806;28;20439;-83
2023/02/05 07:23:41;;;;;;;5.57;4.00;;;;;;;;;;5052838;28;20426;-83
2023/02/05 07:26:11;;;;;;;7.15;4.65;;;;;;;;;;5055691;28;20417;-84
2023/02/05 07:28:37;;;;;;;7.67;5.23;;;;;;;;;;5051391;28;20437;-84
2023/02/05 07:31:04;;;;;;;5.25;4.53;;;;;;;;;;5052524;28;20435;-84
2023/02/05 07:33:30;;;;;;;5.28;4.63;;;;;;;;;;5052350;28;20900;-84
2023/02/05 07:35:56;;;;;;;6.15;4.82;;;;;;;;;;5051345;28;20401;-85
2023/02/05 07:38:23;;;;;;;6.13;4.43;;;;;;;;;;5052283;28;20381;-84
2023/02/05 07:40:50;;;;;;;6.82;4.40;;;;;;;;;;5051896;28;20377;-84
2023/02/05 07:43:16;;;;;;;6.25;4.80;;;;;;;;;;5035426;28;20397;-85
2023/02/05 07:45:42;;;;;;;7.95;4.90;;;;;;;;;;5053331;28;20386;-85
2023/02/05 07:48:08;;;;;;;7.35;5.03;;;;;;;;;;5052868;28;20392;-84
2023/02/05 07:50:34;;;;;;;6.77;4.90;;;;;;;;;;5053219;28;20488;-85
2023/02/05 07:53:00;;;;;;;7.50;4.90;;;;;;;;;;5053085;28;20420;-84
2023/02/05 07:55:26;;;;;;;8.75;5.13;;;;;;;;;;5053423;28;20425;-84
2023/02/05 07:57:52;;;;;;;6.93;5.13;;;;;;;;;;5053204;28;20389;-84
2023/02/05 08:00:18;;;;;;;6.90;5.00;;;;;;;;;;5053014;28;20397;-84
2023/02/05 08:02:44;;;;;;;9.65;5.28;;;;;;;;;;5053102;28;20386;-84
2023/02/05 08:05:10;;;;;;;8.60;5.78;;;;;;;;;;5035210;28;20389;-84
2023/02/05 08:07:36;;;;;;;7.43;5.28;;;;;;;;;;5053320;28;20712;-84
2023/02/05 08:10:03;;;;;;;9.55;5.50;;;;;;;;;;5053632;28;20392;-85
2023/02/05 08:12:29;;;;;;;9.43;5.40;;;;;;;;;;5053171;28;20799;-85
2023/02/05 08:14:55;;;;;;;8.50;5.18;;;;;;;;;;5052752;28;20381;-84
2023/02/05 08:17:21;;;;;;;9.70;5.20;;;;;;;;;;5052800;28;20411;-85
2023/02/05 08:19:47;;;;;;;11.27;6.40;;;;;;;;;;5053087;28;20381;-84
2023/02/05 08:22:13;;;;;;;10.57;5.78;;;;;;;;;;5053066;28;20386;-84
2023/02/05 08:24:39;;;;;;;8.18;5.40;;;;;;;;;;5052755;28;20915;-84
2023/02/05 08:27:05;;;;;;;8.15;5.00;;;;;;;;;;5052909;28;20390;-84
2023/02/05 08:29:31;;;;;;;8.98;4.82;;;;;;;;;;5053503;28;20847;-84
2023/02/05 08:31:57;;;;;;;7.70;5.05;;;;;;;;;;5052929;28;20381;-84
2023/02/05 08:34:23;;;;;;;7.90;5.10;;;;;;;;;;5053604;28;20428;-85
2023/02/05 08:36:49;;;;;;;9.07;5.10;;;;;;;;;;5054850;28;20443;-84
2023/02/05 08:39:15;;;;;;;10.90;5.72;;;;;;;;;;5055219;28;20388;-85
2023/02/05 08:41:41;;;;;;;10.10;6.90;;;;;;;;;;5067402;28;20433;-84
2023/02/05 08:44:07;;;;;;;10.05;6.40;;;;;;;;;;5070886;28;20382;-84
2023/02/05 08:46:33;;;;;;;9.80;6.35;;;;;;;;;;5060077;28;20374;-84
2023/02/05 08:48:59;;;;;;;8.57;5.78;;;;;;;;;;5056795;28;20397;-84
2023/02/05 08:51:26;;;;;;;8.32;5.15;;;;;;;;;;5055654;28;20857;-84
2023/02/05 08:53:52;;;;;;;10.48;5.82;;;;;;;;;;5053683;28;20412;-84
2023/02/05 08:56:18;;;;;;;7.03;5.28;;;;;;;;;;5052047;28;20471;-84
2023/02/05 08:58:44;;;;;;;8.32;5.57;;;;;;;;;;5052892;28;20381;-84
2023/02/05 09:01:12;;;;;;;7.78;5.95;;;;;;;;;;5053088;28;20389;-85
2023/02/05 09:03:38;;;;;;;9.52;6.45;;;;;;;;;;5052770;28;20388;-84
2023/02/05 09:06:09;;;;;;;10.10;6.43;;;;;;;;;;5052711;28;20410;-84
2023/02/05 09:08:35;;;;;;;10.50;6.03;;;;;;;;;;5052912;28;20541;-84
2023/02/05 09:11:01;;;;;;;10.18;6.30;;;;;;;;;;5052675;28;20867;-84
2023/02/05 09:13:27;;;;;;;10.95;7.80;;;;;;;;;;5051912;28;20401;-84
2023/02/05 09:15:53;;;;;;;13.73;7.13;;;;;;;;;;5053058;28;20382;-83
2023/02/05 09:18:19;;;;;;;11.35;7.38;;;;;;;;;;5037796;28;20401;-83
2023/02/05 09:20:46;;;;;;;12.60;7.35;;;;;;;;;;5056920;28;20426;-83
2023/02/05 09:23:13;;;;;;;14.10;7.57;;;;;;;;;;5056607;28;20424;-83
2023/02/05 09:25:40;;;;;;;16.03;7.60;;;;;;;;;;5056630;28;20396;-83
2023/02/05 09:28:08;;;;;;;14.70;8.90;;;;;;;;;;5056625;28;20485;-83
2023/02/05 09:30:35;;;;;;;13.77;9.85;;;;;;;;;;5056322;28;20620;-83
2023/02/05 09:33:01;;;;;;;15.07;10.55;;;;;;;;;;5038325;28;20979;-84
2023/02/05 09:35:27;;;;;;;15.57;11.07;;;;;;;;;;5055781;28;20568;-84
2023/02/05 09:37:53;;;;;;;13.65;10.70;;;;;;;;;;5046552;28;20381;-84
2023/02/05 09:40:20;;;;;;;15.82;11.32;;;;;;;;;;5056106;28;20430;-84
2023/02/05 09:42:55;;;;;;;13.07;11.63;;;;;;;;;;5056119;28;20384;-84
2023/02/05 09:45:36;;;;;;;13.68;12.30;;;;;;;;;;5055452;28;20463;-84
2023/02/05 09:48:02;;;;;;;15.30;13.43;;;;;;;;;;5042720;28;20437;-83
2023/02/05 09:50:28;;;;;;;19.10;13.50;;;;;;;;;;5033307;28;20400;-83
2023/02/05 09:53:02;;;;;;;16.65;14.10;;;;;;;;;;5055765;28;20916;-84
2023/02/05 09:55:39;;;;;;;14.98;13.07;;;;;;;;;;5055682;28;20456;-84
2023/02/05 09:58:11;;;;;;;14.85;12.70;;;;;;;;;;5055696;28;20396;-83
2023/02/05 10:00:43;;;;;;;16.98;12.98;;;;;;;;;;5055791;28;20430;-84
2023/02/05 10:03:23;;;;;;;19.00;12.57;;;;;;;;;;5037765;28;20390;-82
2023/02/05 10:05:49;;;;;;;17.55;12.57;;;;;;;;;;5037734;28;20763;-83
2023/02/05 10:08:22;;;;;;;17.23;12.45;;;;;;;;;;5054971;28;20389;-84
2023/02/05 10:10:49;;;;;;;15.43;11.82;;;;;;;;;;5055715;28;20394;-84
2023/02/05 10:13:23;;;;;;;16.17;11.60;;;;;;;;;;5055365;28;20902;-84
2023/02/05 10:15:56;;;;;;;14.70;11.23;;;;;;;;;;5055436;28;20431;-85
2023/02/05 10:18:41;;;;;;;14.45;10.65;;;;;;;;;;5055568;28;20376;-84
2023/02/05 10:21:16;;;;;;;13.55;10.35;;;;;;;;;;5055057;28;20934;-85
2023/02/05 10:23:47;;;;;;;16.20;10.77;;;;;;;;;;5055017;28;20509;-85
2023/02/05 10:26:14;;;;;;;14.70;10.30;;;;;;;;;;5055267;28;20415;-83
2023/02/05 10:28:49;;;;;;;15.00;9.75;;;;;;;;;;5052326;28;20733;-84
2023/02/05 10:31:21;;;;;;;12.70;9.15;;;;;;;;;;5028754;28;20393;-84
2023/02/05 10:33:49;;;;;;;10.50;8.48;;;;;;;;;;5055555;28;20828;-84
2023/02/05 10:36:20;;;;;;;13.27;8.85;;;;;;;;;;5055296;28;20453;-85
2023/02/05 10:38:47;;;;;;;10.87;8.23;;;;;;;;;;5055796;28;20402;-85
2023/02/05 10:41:16;;;;;;;10.68;8.20;;;;;;;;;;5056297;28;20381;-84
2023/02/05 10:43:44;;;;;;;12.18;8.68;;;;;;;;;;5056099;28;20384;-84
2023/02/05 10:46:14;;;;;;;13.40;8.30;;;;;;;;;;5055710;28;20482;-83
2023/02/05 10:48:45;;;;;;;11.20;7.63;;;;;;;;;;5055937;28;20435;-85
2023/02/05 10:51:37;;;;;;;13.35;8.23;;;;;;;;;;5056127;28;20460;-84
2023/02/05 10:54:03;;;;;;;13.40;7.80;;;;;;;;;;5031466;28;20465;-84
2023/02/05 10:56:29;;;;;;;11.02;7.40;;;;;;;;;;5052121;28;20774;-85
2023/02/05 10:58:58;;;;;;;14.25;8.05;;;;;;;;;;5055489;28;20370;-85
2023/02/05 11:01:25;;;;;;;14.02;8.20;;;;;;;;;;5055998;28;20422;-85
2023/02/05 11:04:03;;;;;;;10.65;7.40;;;;;;;;;;5037515;28;20374;-84
2023/02/05 11:06:32;;;;;;;12.18;6.93;;;;;;;;;;5055278;28;20449;-85
2023/02/05 11:08:58;;;;;;;14.82;7.25;;;;;;;;;;5037681;28;20867;-86
2023/02/05 11:11:27;;;;;;;9.87;7.03;;;;;;;;;;5054999;28;20476;-85
2023/02/05 11:13:58;;;;;;;12.25;6.97;;;;;;;;;;5054884;28;20508;-86
2023/02/05 11:16:34;;;;;;;12.32;6.65;;;;;;;;;;5054969;28;20985;-85
2023/02/05 11:19:00;;;;;;;12.50;7.03;;;;;;;;;;5055175;28;20536;-85
2023/02/05 11:21:45;;;;;;;14.87;7.13;;;;;;;;;;5054790;28;20535;-85
2023/02/05 11:24:21;;;;;;;11.77;6.78;;;;;;;;;;5053817;28;20444;-85
2023/02/05 11:26:48;;;;;;;12.90;7.25;;;;;;;;;;5054861;28;20434;-85
2023/02/05 11:29:22;;;;;;;10.70;7.18;;;;;;;;;;5052797;28;20408;-85
2023/02/05 11:31:48;;;;;;;10.97;6.83;;;;;;;;;;5047993;28;20453;-84
2023/02/05 11:34:15;;;;;;;10.73;6.85;;;;;;;;;;5054244;28;20408;-85
2023/02/05 11:36:49;;;;;;;12.27;7.20;;;;;;;;;;5036688;28;20412;-85
2023/02/05 11:39:28;;;;;;;11.73;6.67;;;;;;;;;;5036434;28;20446;-84
2023/02/05 11:41:55;;;;;;;12.57;6.70;;;;;;;;;;5053192;28;20500;-84
2023/02/05 11:44:24;;;;;;;15.63;7.67;;;;;;;;;;5054185;28;20468;-84
2023/02/05 11:46:55;;;;;;;12.60;7.20;;;;;;;;;;5054180;28;20431;-84
2023/02/05 11:49:23;;;;;;;12.68;6.78;;;;;;;;;;5054832;28;20442;-84
2023/02/05 11:51:51;;;;;;;10.88;6.35;;;;;;;;;;5053909;28;20472;-85
2023/02/05 11:54:20;;;;;;;9.82;6.53;;;;;;;;;;5036510;28;20436;-85
2023/02/05 11:57:00;;;;;;;12.13;6.72;;;;;;;;;;5036267;28;20436;-84
2023/02/05 11:59:26;;;;;;;9.23;5.82;;;;;;;;;;5048873;28;20921;-84
2023/02/05 12:01:52;;;;;;;12.32;6.93;;;;;;;;;;5035763;28;20739;-84
2023/02/05 12:04:19;;;;;;;17.25;7.35;;;;;;;;;;5053967;28;20488;-85
2023/02/05 12:06:50;;;;;;;18.55;6.72;;;;;;;;;;5054308;28;20400;-85
2023/02/05 12:09:19;;;;;;;13.93;7.35;;;;;;;;;;5055990;28;20409;-83
2023/02/05 12:12:05;;;;;;;10.10;6.57;;;;;;;;;;5051628;28;20439;-83
2023/02/05 12:14:50;;;;;;;13.20;6.50;;;;;;;;;;5062525;28;20483;-86
2023/02/05 12:17:18;;;;;;;10.15;6.65;;;;;;;;;;5060056;28;20992;-85
2023/02/05 12:19:44;;;;;;;10.38;6.35;;;;;;;;;;5050540;28;20389;-84
2023/02/05 12:22:20;;;;;;;10.70;7.22;;;;;;;;;;5037331;28;20956;-85
2023/02/05 12:24:52;;;;;;;13.35;8.32;;;;;;;;;;5037480;28;20571;-84
2023/02/05 12:27:23;;;;;;;15.07;7.53;;;;;;;;;;5046204;28;20443;-83
2023/02/05 12:30:01;;;;;;;16.73;8.80;;;;;;;;;;5043117;28;20530;-84
2023/02/05 12:32:48;;;;;;;16.15;9.38;;;;;;;;;;5039915;28;20567;-84
2023/02/05 12:35:25;;;;;;;16.08;8.45;;;;;;;;;;5033679;28;20448;-84
2023/02/05 12:38:03;;;;;;;14.77;9.02;;;;;;;;;;5039626;28;20735;-84
2023/02/05 12:40:29;;;;;;;14.38;8.30;;;;;;;;;;5053171;28;20450;-83
2023/02/05 12:43:14;;;;;;;16.85;8.95;;;;;;;;;;5037316;28;20448;-84
2023/02/05 12:45:58;;;;;;;13.15;8.65;;;;;;;;;;5040243;28;20432;-85
2023/02/05 12:48:39;;;;;;;12.13;7.22;;;;;;;;;;5035177;28;20907;-84
2023/02/05 12:51:24;;;;;;;12.45;7.45;;;;;;;;;;5032839;28;20486;-83
2023/02/05 12:53:53;;;;;;;11.70;7.03;;;;;;;;;;5033690;28;20471;-82
2023/02/05 12:56:25;;;;;;;13.95;6.28;;;;;;;;;;5038189;28;20511;-84
2023/02/05 12:58:57;;;;;;;10.73;5.93;;;;;;;;;;5030129;28;20560;-84
2023/02/05 13:01:33;;;;;;;9.40;6.45;;;;;;;;;;5037547;28;20432;-84
2023/02/05 13:04:00;;;;;;;13.05;7.05;;;;;;;;;;5038885;28;20510;-84
2023/02/05 13:06:45;;;;;;;9.90;7.00;;;;;;;;;;5039378;28;20388;-84
2023/02/05 13:09:18;;;;;;;11.13;7.03;;;;;;;;;;5040645;28;20431;-86
2023/02/05 13:11:55;;;;;;;12.77;7.03;;;;;;;;;;5018811;28;20523;-84
2023/02/05 13:14:29;;;;;;;12.35;7.03;;;;;;;;;;5045640;28;20869;-87
2023/02/05 13:17:04;;;;;;;10.80;6.70;;;;;;;;;;5040201;28;20550;-84
2023/02/05 13:19:56;;;;;;;11.68;7.00;;;;;;;;;;5041318;28;20443;-84
2023/02/05 13:30:49;;;;;;;11.00;7.53;;;;;;;;;;5041994;28;20476;-83
2023/02/05 13:33:15;;;;;;;10.45;7.60;;;;;;;;;;5036207;28;20452;-84
2023/02/05 13:35:57;;;;;;;12.93;7.88;;;;;;;;;;5014185;28;20427;-84
2023/02/05 13:38:41;;;;;;;10.27;7.43;;;;;;;;;;5035897;28;20475;-84
2023/02/05 13:41:16;;;;;;;12.50;8.20;;;;;;;;;;5030970;28;20423;-84
2023/02/05 13:43:51;;;;;;;14.57;8.95;;;;;;;;;;5038134;28;20400;-84
2023/02/05 13:46:25;;;;;;;14.93;10.38;;;;;;;;;;5032153;28;20855;-84
2023/02/05 13:48:59;;;;;;;15.52;10.15;;;;;;;;;;5045877;28;20390;-83
2023/02/05 13:51:36;;;;;;;15.00;9.73;;;;;;;;;;5037784;28;20390;-83
2023/02/05 13:54:12;;;;;;;14.98;9.27;;;;;;;;;;5029939;28;20502;-86
2023/02/05 13:56:38;;;;;;;19.23;9.60;;;;;;;;;;5036060;28;20430;-85
2023/02/05 13:59:21;;;;;;;14.30;9.67;;;;;;;;;;5035340;28;20973;-85
2023/02/05 14:01:54;;;;;;;14.50;9.95;;;;;;;;;;5033259;28;20443;-84
2023/02/05 14:04:26;;;;;;;16.88;10.32;;;;;;;;;;5039276;28;20440;-85
2023/02/05 14:07:22;;;;;;;19.42;10.20;;;;;;;;;;5041615;28;20445;-83
2023/02/05 14:09:58;;;;;;;10.32;8.63;;;;;;;;;;5023196;28;20478;-83
2023/02/05 14:12:34;;;;;;;12.85;8.48;;;;;;;;;;5042318;28;21177;-83
2023/02/05 14:15:16;;;;;;;16.02;9.43;;;;;;;;;;5037543;28;20495;-81
2023/02/05 14:17:42;;;;;;;12.67;8.87;;;;;;;;;;5034114;28;20420;-82
2023/02/05 14:20:27;;;;;;;14.38;9.60;;;;;;;;;;5035189;28;20911;-82
2023/02/05 14:22:54;;;;;;;11.90;8.40;;;;;;;;;;5047059;28;20386;-82
2023/02/05 14:25:36;;;;;;;11.15;8.60;;;;;;;;;;5039587;28;20395;-83
2023/02/05 14:28:03;;;;;;;11.60;9.23;;;;;;;;;;5036228;28;20518;-83
2023/02/05 14:30:29;;;;;;;13.00;9.77;;;;;;;;;;5018999;28;20490;-84
2023/02/05 14:32:57;;;;;;;13.73;9.90;;;;;;;;;;5033581;28;20827;-83
2023/02/05 14:35:31;;;;;;;14.43;9.45;;;;;;;;;;5034140;28;20437;-83
2023/02/05 14:38:01;;;;;;;13.30;8.63;;;;;;;;;;5038621;28;20369;-83
2023/02/05 14:40:37;;;;;;;11.25;9.25;;;;;;;;;;5033994;28;20471;-83
2023/02/05 14:43:30;;;;;;;14.85;8.98;;;;;;;;;;5018295;28;20717;-83
2023/02/05 14:45:57;;;;;;;12.20;8.60;;;;;;;;;;5051340;28;20396;-83
2023/02/05 14:48:28;;;;;;;12.82;9.30;;;;;;;;;;5036641;28;20426;-83
2023/02/05 14:51:01;;;;;;;14.13;9.97;;;;;;;;;;5036961;28;20770;-84
2023/02/05 14:53:28;;;;;;;15.75;9.30;;;;;;;;;;5036837;28;20463;-83
2023/02/05 14:55:55;;;;;;;14.68;9.18;;;;;;;;;;5032292;28;21080;-84
2023/02/05 14:58:33;;;;;;;12.05;9.35;;;;;;;;;;5035223;28;20412;-84